sensor_id;sensor_type;location;lat;lon;timestamp;pressure;altitude;pressure_sealevel;temperature;humidity
49194;BME280;35029;50.804;12.866;2023-03-21T00:01:54;97824.66;;;8.12;100.00
49194;BME280;35029;50.804;12.866;2023-03-21T00:04:24;97832.22;;;8.15;100.00
49194;BME280;35029;50.804;12.866;2023-03-21T00:06:51;97825.38;;;8.06;100.00
49194;BME280;35029;50.804;12.866;2023-03-21T00:09:17;97825.53;;;8.04;100.00
49194;BME280;35029;50.804;12.866;2023-03-21T00:11:42;97817.09;;;8.09;100.00
49194;BME280;35029;50.804;12.866;2023-03-21T00:14:09;97818.28;;;8.06;100.00
49194;BME280;35029;50.804;12.866;2023-03-21T00:16:39;97827.47;;;8.10;100.00
49194;BME280;35029;50.804;12.866;2023-03-21T00:19:05;97818.28;;;8.06;100.00
49194;BME280;35029;50.804;12.866;2023-03-21T00:21:32;97816.81;;;8.04;100.00
49194;BME280;35029;50.804;12.866;2023-03-21T00:24:04;97815.69;;;7.98;100.00
49194;BME280;35029;50.804;12.866;2023-03-21T00:26:31;97814.22;;;7.95;100.00
49194;BME280;35029;50.804;12.866;2023-03-21T00:28:56;97817.69;;;7.96;100.00
49194;BME280;35029;50.804;12.866;2023-03-21T00:31:22;97820.50;;;7.94;100.00
49194;BME280;35029;50.804;12.866;2023-03-21T00:33:48;97816.50;;;7.99;100.00
49194;BME280;35029;50.804;12.866;2023-03-21T00:36:14;97805.09;;;7.83;100.00
49194;BME280;35029;50.804;12.866;2023-03-21T00:38:40;97788.81;;;7.71;100.00
49194;BME280;35029;50.804;12.866;2023-03-21T00:41:08;97814.00;;;7.82;100.00
49194;BME280;35029;50.804;12.866;2023-03-21T00:43:34;97815.81;;;7.82;100.00
49194;BME280;35029;50.804;12.866;2023-03-21T00:46:00;97814.97;;;7.81;100.00
49194;BME280;35029;50.804;12.866;2023-03-21T00:48:26;97810.53;;;7.82;100.00
49194;BME280;35029;50.804;12.866;2023-03-21T00:50:53;97812.50;;;7.79;100.00
49194;BME280;35029;50.804;12.866;2023-03-21T00:53:20;97811.34;;;7.82;100.00
49194;BME280;35029;50.804;12.866;2023-03-21T00:55:47;97798.69;;;7.77;100.00
49194;BME280;35029;50.804;12.866;2023-03-21T00:58:14;97800.50;;;7.77;100.00
49194;BME280;35029;50.804;12.866;2023-03-21T01:00:39;97778.38;;;7.55;100.00
49194;BME280;35029;50.804;12.866;2023-03-21T01:03:07;97798.44;;;7.64;100.00
49194;BME280;35029;50.804;12.866;2023-03-21T01:05:37;97800.28;;;7.64;100.00
49194;BME280;35029;50.804;12.866;2023-03-21T01:08:22;97774.16;;;7.45;100.00
49194;BME280;35029;50.804;12.866;2023-03-21T01:10:50;97797.47;;;7.65;100.00
49194;BME280;35029;50.804;12.866;2023-03-21T01:13:18;97795.81;;;7.64;100.00
49194;BME280;35029;50.804;12.866;2023-03-21T01:15:47;97773.97;;;7.47;100.00
49194;BME280;35029;50.804;12.866;2023-03-21T01:18:14;97798.44;;;7.64;100.00
49194;BME280;35029;50.804;12.866;2023-03-21T01:20:41;97791.53;;;7.63;100.00
49194;BME280;35029;50.804;12.866;2023-03-21T01:23:08;97773.41;;;7.37;99.99
49194;BME280;35029;50.804;12.866;2023-03-21T01:25:33;97787.53;;;7.44;99.28
49194;BME280;35029;50.804;12.866;2023-03-21T01:27:59;97796.09;;;7.46;100.00
49194;BME280;35029;50.804;12.866;2023-03-21T01:30:25;97786.03;;;7.41;100.00
49194;BME280;35029;50.804;12.866;2023-03-21T01:32:51;97803.84;;;7.48;99.48
49194;BME280;35029;50.804;12.866;2023-03-21T01:35:17;97797.03;;;7.53;98.38
49194;BME280;35029;50.804;12.866;2023-03-21T01:37:43;97795.25;;;7.45;99.43
49194;BME280;35029;50.804;12.866;2023-03-21T01:40:16;97802.00;;;7.48;99.36
49194;BME280;35029;50.804;12.866;2023-03-21T01:42:42;97801.50;;;7.53;99.05
49194;BME280;35029;50.804;12.866;2023-03-21T01:48:12;97797.63;;;7.40;98.07
49194;BME280;35029;50.804;12.866;2023-03-21T01:50:44;97797.63;;;7.40;98.22
49194;BME280;35029;50.804;12.866;2023-03-21T01:53:21;97805.00;;;7.45;98.67
49194;BME280;35029;50.804;12.866;2023-03-21T01:55:48;97800.72;;;7.44;97.82
49194;BME280;35029;50.804;12.866;2023-03-21T01:58:32;97791.50;;;7.40;97.70
49194;BME280;35029;50.804;12.866;2023-03-21T02:01:24;97792.44;;;7.47;97.40
49194;BME280;35029;50.804;12.866;2023-03-21T02:03:54;97788.38;;;7.44;98.02
49194;BME280;35029;50.804;12.866;2023-03-21T02:06:31;97790.50;;;7.41;98.40
49194;BME280;35029;50.804;12.866;2023-03-21T02:09:21;97778.00;;;7.35;97.09
49194;BME280;35029;50.804;12.866;2023-03-21T02:11:49;97788.88;;;7.40;97.35
49194;BME280;35029;50.804;12.866;2023-03-21T02:14:18;97748.13;;;7.19;97.31
49194;BME280;35029;50.804;12.866;2023-03-21T02:19:44;97782.13;;;7.37;96.63
49194;BME280;35029;50.804;12.866;2023-03-21T02:31:20;97775.50;;;7.41;97.55
49194;BME280;35029;50.804;12.866;2023-03-21T02:33:57;97773.22;;;7.38;97.55
49194;BME280;35029;50.804;12.866;2023-03-21T02:37:09;97764.19;;;7.33;97.12
49194;BME280;35029;50.804;12.866;2023-03-21T02:39:26;97769.13;;;7.36;97.00
49194;BME280;35029;50.804;12.866;2023-03-21T02:42:20;97759.41;;;7.36;97.88
49194;BME280;35029;50.804;12.866;2023-03-21T02:45:18;97768.31;;;7.35;96.10
49194;BME280;35029;50.804;12.866;2023-03-21T02:47:57;97754.19;;;7.28;96.96
49194;BME280;35029;50.804;12.866;2023-03-21T02:50:30;97763.47;;;7.39;97.40
49194;BME280;35029;50.804;12.866;2023-03-21T02:52:58;97748.00;;;7.36;96.78
49194;BME280;35029;50.804;12.866;2023-03-21T02:55:30;97763.97;;;7.42;95.28
49194;BME280;35029;50.804;12.866;2023-03-21T02:58:00;97755.75;;;7.37;96.24
49194;BME280;35029;50.804;12.866;2023-03-21T03:00:30;97763.38;;;7.32;95.75
49194;BME280;35029;50.804;12.866;2023-03-21T03:02:58;97762.25;;;7.26;96.85
49194;BME280;35029;50.804;12.866;2023-03-21T03:05:26;97761.13;;;7.21;97.24
49194;BME280;35029;50.804;12.866;2023-03-21T03:13:49;97769.38;;;7.18;97.03
49194;BME280;35029;50.804;12.866;2023-03-21T03:16:43;97767.56;;;7.18;98.15
49194;BME280;35029;50.804;12.866;2023-03-21T03:19:24;97767.06;;;7.23;98.31
49194;BME280;35029;50.804;12.866;2023-03-21T03:21:58;97768.03;;;7.22;99.24
49194;BME280;35029;50.804;12.866;2023-03-21T03:24:32;97756.50;;;7.23;98.24
49194;BME280;35029;50.804;12.866;2023-03-21T03:27:03;97763.75;;;7.21;98.88
49194;BME280;35029;50.804;12.866;2023-03-21T03:29:36;97757.00;;;7.18;99.17
49194;BME280;35029;50.804;12.866;2023-03-21T03:32:10;97761.88;;;7.06;100.00
49194;BME280;35029;50.804;12.866;2023-03-21T03:34:43;97770.59;;;7.07;100.00
49194;BME280;35029;50.804;12.866;2023-03-21T03:37:18;97753.31;;;7.04;100.00
49194;BME280;35029;50.804;12.866;2023-03-21T03:39:48;97775.06;;;7.06;100.00
49194;BME280;35029;50.804;12.866;2023-03-21T03:42:18;97772.28;;;7.00;100.00
49194;BME280;35029;50.804;12.866;2023-03-21T03:44:50;97777.19;;;7.03;100.00
49194;BME280;35029;50.804;12.866;2023-03-21T03:49:49;97766.19;;;6.91;100.00
49194;BME280;35029;50.804;12.866;2023-03-21T03:52:23;97771.34;;;6.84;100.00
49194;BME280;35029;50.804;12.866;2023-03-21T03:55:13;97763.47;;;6.76;100.00
49194;BME280;35029;50.804;12.866;2023-03-21T03:57:42;97769.53;;;6.85;100.00
49194;BME280;35029;50.804;12.866;2023-03-21T04:00:10;97772.84;;;6.79;100.00
49194;BME280;35029;50.804;12.866;2023-03-21T04:02:43;97763.47;;;6.76;100.00
49194;BME280;35029;50.804;12.866;2023-03-21T04:05:13;97763.28;;;6.77;100.00
49194;BME280;35029;50.804;12.866;2023-03-21T04:07:39;97761.00;;;6.74;100.00
49194;BME280;35029;50.804;12.866;2023-03-21T04:10:06;97755.41;;;6.69;100.00
49194;BME280;35029;50.804;12.866;2023-03-21T04:12:38;97771.19;;;6.77;100.00
49194;BME280;35029;50.804;12.866;2023-03-21T04:15:27;97744.59;;;6.64;100.00
49194;BME280;35029;50.804;12.866;2023-03-21T04:17:59;97773.69;;;6.79;100.00
49194;BME280;35029;50.804;12.866;2023-03-21T04:20:25;97779.63;;;6.73;100.00
49194;BME280;35029;50.804;12.866;2023-03-21T04:22:50;97776.34;;;6.71;100.00
49194;BME280;35029;50.804;12.866;2023-03-21T04:25:17;97772.88;;;6.70;100.00
49194;BME280;35029;50.804;12.866;2023-03-21T04:27:42;97752.53;;;6.48;100.00
49194;BME280;35029;50.804;12.866;2023-03-21T04:30:32;97769.44;;;6.62;100.00
49194;BME280;35029;50.804;12.866;2023-03-21T04:33:16;97770.59;;;6.67;100.00
49194;BME280;35029;50.804;12.866;2023-03-21T04:35:49;97775.34;;;6.64;100.00
49194;BME280;35029;50.804;12.866;2023-03-21T04:38:15;97773.03;;;6.69;100.00
49194;BME280;35029;50.804;12.866;2023-03-21T04:40:40;97772.41;;;6.67;100.00
49194;BME280;35029;50.804;12.866;2023-03-21T04:43:06;97767.59;;;6.70;100.00
49194;BME280;35029;50.804;12.866;2023-03-21T04:45:36;97769.28;;;6.63;100.00
49194;BME280;35029;50.804;12.866;2023-03-21T04:48:02;97763.69;;;6.58;100.00
49194;BME280;35029;50.804;12.866;2023-03-21T04:50:29;97764.19;;;6.62;100.00
49194;BME280;35029;50.804;12.866;2023-03-21T04:52:56;97768.63;;;6.61;100.00
49194;BME280;35029;50.804;12.866;2023-03-21T04:55:21;97765.00;;;6.62;100.00
49194;BME280;35029;50.804;12.866;2023-03-21T04:57:47;97765.97;;;6.61;100.00
49194;BME280;35029;50.804;12.866;2023-03-21T05:00:13;97714.59;;;6.17;100.00
49194;BME280;35029;50.804;12.866;2023-03-21T05:02:39;97759.41;;;6.57;100.00
49194;BME280;35029;50.804;12.866;2023-03-21T05:05:06;97755.63;;;6.51;100.00
49194;BME280;35029;50.804;12.866;2023-03-21T05:07:37;97756.31;;;6.53;100.00
49194;BME280;35029;50.804;12.866;2023-03-21T05:10:04;97736.88;;;6.46;100.00
49194;BME280;35029;50.804;12.866;2023-03-21T05:12:30;97741.66;;;6.51;100.00
49194;BME280;35029;50.804;12.866;2023-03-21T05:14:55;97746.41;;;6.55;100.00
49194;BME280;35029;50.804;12.866;2023-03-21T05:17:21;97745.94;;;6.52;100.00
49194;BME280;35029;50.804;12.866;2023-03-21T05:19:52;97749.03;;;6.55;100.00
49194;BME280;35029;50.804;12.866;2023-03-21T05:22:20;97741.16;;;6.55;100.00
49194;BME280;35029;50.804;12.866;2023-03-21T05:24:46;97743.47;;;6.50;100.00
49194;BME280;35029;50.804;12.866;2023-03-21T05:27:27;97742.13;;;6.54;100.00
49194;BME280;35029;50.804;12.866;2023-03-21T05:30:04;97741.66;;;6.51;100.00
49194;BME280;35029;50.804;12.866;2023-03-21T05:32:32;97738.50;;;6.55;100.00
49194;BME280;35029;50.804;12.866;2023-03-21T05:34:59;97741.16;;;6.47;100.00
49194;BME280;35029;50.804;12.866;2023-03-21T05:37:26;97744.28;;;6.51;100.00
49194;BME280;35029;50.804;12.866;2023-03-21T05:39:51;97737.53;;;6.56;100.00
49194;BME280;35029;50.804;12.866;2023-03-21T05:42:37;97743.31;;;6.52;100.00
49194;BME280;35029;50.804;12.866;2023-03-21T05:45:12;97739.50;;;6.54;100.00
49194;BME280;35029;50.804;12.866;2023-03-21T05:47:38;97750.19;;;6.53;100.00
49194;BME280;35029;50.804;12.866;2023-03-21T05:50:04;97741.16;;;6.55;100.00
49194;BME280;35029;50.804;12.866;2023-03-21T05:52:31;97746.56;;;6.62;100.00
49194;BME280;35029;50.804;12.866;2023-03-21T05:54:58;97738.47;;;6.64;100.00
49194;BME280;35029;50.804;12.866;2023-03-21T05:57:25;97741.28;;;6.62;100.00
49194;BME280;35029;50.804;12.866;2023-03-21T06:00:04;97743.13;;;6.62;100.00
49194;BME280;35029;50.804;12.866;2023-03-21T06:02:40;97750.81;;;6.71;100.00
49194;BME280;35029;50.804;12.866;2023-03-21T06:05:13;97755.44;;;6.61;100.00
49194;BME280;35029;50.804;12.866;2023-03-21T06:07:40;97750.31;;;6.68;100.00
49194;BME280;35029;50.804;12.866;2023-03-21T06:10:07;97761.69;;;6.68;100.00
49194;BME280;35029;50.804;12.866;2023-03-21T06:12:33;97760.69;;;6.69;100.00
49194;BME280;35029;50.804;12.866;2023-03-21T06:15:17;97760.00;;;6.75;100.00
49194;BME280;35029;50.804;12.866;2023-03-21T06:17:51;97758.53;;;6.73;100.00
49194;BME280;35029;50.804;12.866;2023-03-21T06:20:17;97745.22;;;6.66;100.00
49194;BME280;35029;50.804;12.866;2023-03-21T06:22:47;97762.97;;;6.81;100.00
49194;BME280;35029;50.804;12.866;2023-03-21T06:25:13;97766.75;;;6.78;100.00
49194;BME280;35029;50.804;12.866;2023-03-21T06:27:40;97755.25;;;6.79;100.00
49194;BME280;35029;50.804;12.866;2023-03-21T06:30:06;97758.81;;;6.86;100.00
49194;BME280;35029;50.804;12.866;2023-03-21T06:32:38;97733.34;;;6.70;100.00
49194;BME280;35029;50.804;12.866;2023-03-21T06:35:08;97758.16;;;6.84;100.00
49194;BME280;35029;50.804;12.866;2023-03-21T06:37:35;97731.88;;;6.68;100.00
49194;BME280;35029;50.804;12.866;2023-03-21T06:40:00;97771.97;;;6.94;100.00
49194;BME280;35029;50.804;12.866;2023-03-21T06:42:26;97763.72;;;6.98;100.00
49194;BME280;35029;50.804;12.866;2023-03-21T06:44:57;97768.47;;;7.02;100.00
49194;BME280;35029;50.804;12.866;2023-03-21T06:47:23;97770.94;;;7.04;100.00
49194;BME280;35029;50.804;12.866;2023-03-21T06:49:49;97769.47;;;7.01;100.00
49194;BME280;35029;50.804;12.866;2023-03-21T06:52:15;97743.03;;;6.78;100.00
49194;BME280;35029;50.804;12.866;2023-03-21T06:54:41;97774.56;;;7.03;100.00
49194;BME280;35029;50.804;12.866;2023-03-21T06:57:10;97777.38;;;7.01;100.00
49194;BME280;35029;50.804;12.866;2023-03-21T06:59:37;97775.50;;;7.10;100.00
49194;BME280;35029;50.804;12.866;2023-03-21T07:02:06;97771.13;;;7.34;100.00
49194;BME280;35029;50.804;12.866;2023-03-21T07:04:37;97764.22;;;7.56;100.00
49194;BME280;35029;50.804;12.866;2023-03-21T07:07:05;97769.50;;;7.56;100.00
49194;BME280;35029;50.804;12.866;2023-03-21T07:09:31;97774.75;;;7.56;100.00
49194;BME280;35029;50.804;12.866;2023-03-21T07:12:02;97770.97;;;7.58;100.00
49194;BME280;35029;50.804;12.866;2023-03-21T07:14:40;97771.19;;;7.72;100.00
49194;BME280;35029;50.804;12.866;2023-03-21T07:17:06;97756.34;;;7.94;100.00
49194;BME280;35029;50.804;12.866;2023-03-21T07:19:31;97760.22;;;7.83;100.00
49194;BME280;35029;50.804;12.866;2023-03-21T07:21:57;97769.13;;;7.82;100.00
49194;BME280;35029;50.804;12.866;2023-03-21T07:24:24;97768.06;;;7.91;100.00
49194;BME280;35029;50.804;12.866;2023-03-21T07:26:52;97737.47;;;7.82;100.00
49194;BME280;35029;50.804;12.866;2023-03-21T07:29:17;97766.53;;;7.97;100.00
49194;BME280;35029;50.804;12.866;2023-03-21T07:31:45;97753.88;;;7.92;100.00
49194;BME280;35029;50.804;12.866;2023-03-21T07:34:11;97765.19;;;8.01;100.00
49194;BME280;35029;50.804;12.866;2023-03-21T07:36:37;97764.66;;;8.06;100.00
49194;BME280;35029;50.804;12.866;2023-03-21T07:39:05;97746.31;;;8.04;100.00
49194;BME280;35029;50.804;12.866;2023-03-21T07:41:32;97756.22;;;8.25;100.00
49194;BME280;35029;50.804;12.866;2023-03-21T07:44:09;97756.41;;;8.39;100.00
49194;BME280;35029;50.804;12.866;2023-03-21T07:46:34;97737.44;;;8.20;100.00
49194;BME280;35029;50.804;12.866;2023-03-21T07:49:00;97764.09;;;8.49;100.00
49194;BME280;35029;50.804;12.866;2023-03-21T07:51:28;97745.16;;;8.45;100.00
49194;BME280;35029;50.804;12.866;2023-03-21T07:53:53;97746.47;;;8.41;100.00
49194;BME280;35029;50.804;12.866;2023-03-21T07:56:19;97766.84;;;8.55;100.00
49194;BME280;35029;50.804;12.866;2023-03-21T07:58:46;97768.50;;;8.56;100.00
49194;BME280;35029;50.804;12.866;2023-03-21T08:01:11;97768.63;;;8.40;100.00
49194;BME280;35029;50.804;12.866;2023-03-21T08:03:37;97766.69;;;8.34;100.00
49194;BME280;35029;50.804;12.866;2023-03-21T08:06:03;97764.59;;;8.29;100.00
49194;BME280;35029;50.804;12.866;2023-03-21T08:08:28;97776.78;;;8.30;100.00
49194;BME280;35029;50.804;12.866;2023-03-21T08:10:54;97770.63;;;8.38;100.00
49194;BME280;35029;50.804;12.866;2023-03-21T08:13:20;97769.63;;;8.39;100.00
49194;BME280;35029;50.804;12.866;2023-03-21T08:15:45;97775.34;;;8.42;100.00
49194;BME280;35029;50.804;12.866;2023-03-21T08:18:11;97777.94;;;8.51;100.00
49194;BME280;35029;50.804;12.866;2023-03-21T08:20:37;97775.84;;;8.46;100.00
49194;BME280;35029;50.804;12.866;2023-03-21T08:23:03;97775.47;;;8.49;100.00
49194;BME280;35029;50.804;12.866;2023-03-21T08:25:28;97756.81;;;8.51;100.00
49194;BME280;35029;50.804;12.866;2023-03-21T08:27:55;97776.66;;;8.76;100.00
49194;BME280;35029;50.804;12.866;2023-03-21T08:30:22;97781.50;;;8.88;100.00
49194;BME280;35029;50.804;12.866;2023-03-21T08:32:48;97778.50;;;8.91;98.38
49194;BME280;35029;50.804;12.866;2023-03-21T08:35:17;97771.28;;;9.00;96.75
49194;BME280;35029;50.804;12.866;2023-03-21T08:37:43;97774.28;;;8.96;97.21
49194;BME280;35029;50.804;12.866;2023-03-21T08:40:14;97752.25;;;8.89;96.49
49194;BME280;35029;50.804;12.866;2023-03-21T08:42:41;97771.16;;;9.08;95.83
49194;BME280;35029;50.804;12.866;2023-03-21T08:45:07;97777.63;;;9.20;95.20
49194;BME280;35029;50.804;12.866;2023-03-21T08:47:33;97778.34;;;9.29;93.57
49194;BME280;35029;50.804;12.866;2023-03-21T08:49:59;97767.97;;;9.27;94.88
49194;BME280;35029;50.804;12.866;2023-03-21T08:52:25;97772.88;;;9.30;94.50
49194;BME280;35029;50.804;12.866;2023-03-21T08:54:53;97744.00;;;9.14;95.61
49194;BME280;35029;50.804;12.866;2023-03-21T08:57:19;97765.47;;;9.41;95.07
49194;BME280;35029;50.804;12.866;2023-03-21T08:59:45;97771.81;;;9.46;95.27
49194;BME280;35029;50.804;12.866;2023-03-21T09:02:13;97768.00;;;9.49;95.23
49194;BME280;35029;50.804;12.866;2023-03-21T09:04:40;97771.53;;;9.78;94.88
49194;BME280;35029;50.804;12.866;2023-03-21T09:07:06;97768.69;;;10.01;93.34
49194;BME280;35029;50.804;12.866;2023-03-21T09:09:32;97769.41;;;10.17;91.60
49194;BME280;35029;50.804;12.866;2023-03-21T09:11:57;97766.00;;;10.23;91.21
49194;BME280;35029;50.804;12.866;2023-03-21T09:14:23;97764.94;;;10.17;92.25
49194;BME280;35029;50.804;12.866;2023-03-21T09:16:48;97747.41;;;10.16;91.96
49194;BME280;35029;50.804;12.866;2023-03-21T09:19:15;97756.34;;;10.37;89.29
49194;BME280;35029;50.804;12.866;2023-03-21T09:21:41;97761.97;;;10.55;89.77
49194;BME280;35029;50.804;12.866;2023-03-21T09:24:08;97745.91;;;10.70;89.78
49194;BME280;35029;50.804;12.866;2023-03-21T09:26:34;97741.28;;;10.79;87.98
49194;BME280;35029;50.804;12.866;2023-03-21T09:28:59;97752.75;;;10.86;88.92
49194;BME280;35029;50.804;12.866;2023-03-21T09:31:25;97743.19;;;10.98;90.10
49194;BME280;35029;50.804;12.866;2023-03-21T09:33:53;97747.31;;;11.08;89.31
49194;BME280;35029;50.804;12.866;2023-03-21T09:36:20;97725.03;;;10.95;90.03
49194;BME280;35029;50.804;12.866;2023-03-21T09:38:50;97736.75;;;11.14;88.75
49194;BME280;35029;50.804;12.866;2023-03-21T09:44:29;97733.13;;;11.42;88.54
49194;BME280;35029;50.804;12.866;2023-03-21T09:47:04;97728.50;;;11.64;87.07
49194;BME280;35029;50.804;12.866;2023-03-21T09:49:39;97728.88;;;11.68;85.37
49194;BME280;35029;50.804;12.866;2023-03-21T09:54:48;97728.09;;;11.81;85.13
49194;BME280;35029;50.804;12.866;2023-03-21T09:57:34;97721.97;;;11.67;84.25
49194;BME280;35029;50.804;12.866;2023-03-21T10:00:05;97720.06;;;11.41;84.29
49194;BME280;35029;50.804;12.866;2023-03-21T10:02:43;97721.28;;;11.45;83.93
49194;BME280;35029;50.804;12.866;2023-03-21T10:07:45;97707.44;;;11.70;82.24
49194;BME280;35029;50.804;12.866;2023-03-21T10:10:21;97699.88;;;12.20;84.24
49194;BME280;35029;50.804;12.866;2023-03-21T10:12:52;97694.72;;;12.59;81.20
49194;BME280;35029;50.804;12.866;2023-03-21T10:15:21;97699.19;;;12.65;79.28
49194;BME280;35029;50.804;12.866;2023-03-21T10:18:00;97689.00;;;12.48;79.17
49194;BME280;35029;50.804;12.866;2023-03-21T10:20:31;97690.22;;;12.46;78.96
49194;BME280;35029;50.804;12.866;2023-03-21T10:22:59;97693.94;;;12.38;77.05
49194;BME280;35029;50.804;12.866;2023-03-21T10:25:32;97696.22;;;12.28;78.50
49194;BME280;35029;50.804;12.866;2023-03-21T10:27:59;97679.25;;;12.22;78.29
49194;BME280;35029;50.804;12.866;2023-03-21T10:30:44;97689.66;;;12.30;79.52
49194;BME280;35029;50.804;12.866;2023-03-21T10:33:14;97687.97;;;12.49;79.79
49194;BME280;35029;50.804;12.866;2023-03-21T10:35:44;97688.44;;;12.33;78.85
49194;BME280;35029;50.804;12.866;2023-03-21T10:38:22;97680.00;;;12.49;79.24
49194;BME280;35029;50.804;12.866;2023-03-21T10:40:49;97661.28;;;12.17;77.88
49194;BME280;35029;50.804;12.866;2023-03-21T10:45:52;97677.78;;;12.40;78.92
49194;BME280;35029;50.804;12.866;2023-03-21T10:48:18;97664.09;;;12.29;77.84
49194;BME280;35029;50.804;12.866;2023-03-21T10:50:48;97666.94;;;12.48;78.94
49194;BME280;35029;50.804;12.866;2023-03-21T10:53:25;97665.00;;;12.75;79.60
49194;BME280;35029;50.804;12.866;2023-03-21T10:55:55;97669.28;;;12.76;77.75
49194;BME280;35029;50.804;12.866;2023-03-21T10:58:26;97651.31;;;12.65;75.71
49194;BME280;35029;50.804;12.866;2023-03-21T11:01:00;97666.31;;;12.98;75.85
49194;BME280;35029;50.804;12.866;2023-03-21T11:03:30;97661.50;;;13.20;76.13
49194;BME280;35029;50.804;12.866;2023-03-21T11:06:08;97661.31;;;13.79;75.44
49194;BME280;35029;50.804;12.866;2023-03-21T11:08:38;97657.63;;;13.80;72.19
49194;BME280;35029;50.804;12.866;2023-03-21T11:11:08;97658.34;;;13.62;72.91
49194;BME280;35029;50.804;12.866;2023-03-21T11:13:42;97658.41;;;13.55;73.17
49194;BME280;35029;50.804;12.866;2023-03-21T11:16:11;97656.56;;;13.56;70.70
49194;BME280;35029;50.804;12.866;2023-03-21T11:18:44;97647.06;;;13.66;70.97
49194;BME280;35029;50.804;12.866;2023-03-21T11:21:13;97651.22;;;14.06;69.30
49194;BME280;35029;50.804;12.866;2023-03-21T11:23:46;97654.78;;;13.75;67.75
49194;BME280;35029;50.804;12.866;2023-03-21T11:26:26;97650.84;;;13.52;69.16
49194;BME280;35029;50.804;12.866;2023-03-21T11:28:54;97647.47;;;13.38;69.73
49194;BME280;35029;50.804;12.866;2023-03-21T11:31:21;97644.66;;;13.58;69.17
49194;BME280;35029;50.804;12.866;2023-03-21T11:33:55;97659.75;;;13.64;69.71
49194;BME280;35029;50.804;12.866;2023-03-21T11:38:49;97644.22;;;13.61;68.81
49194;BME280;35029;50.804;12.866;2023-03-21T11:41:24;97626.56;;;13.67;70.27
49194;BME280;35029;50.804;12.866;2023-03-21T11:43:51;97622.13;;;13.61;69.12
49194;BME280;35029;50.804;12.866;2023-03-21T11:46:22;97641.41;;;13.81;67.29
49194;BME280;35029;50.804;12.866;2023-03-21T11:48:48;97640.75;;;13.86;69.27
49194;BME280;35029;50.804;12.866;2023-03-21T11:51:38;97633.34;;;13.88;66.06
49194;BME280;35029;50.804;12.866;2023-03-21T11:57:22;97628.34;;;14.17;65.62
49194;BME280;35029;50.804;12.866;2023-03-21T12:05:33;97613.53;;;14.40;65.48
49194;BME280;35029;50.804;12.866;2023-03-21T12:08:21;97613.91;;;14.25;65.38
49194;BME280;35029;50.804;12.866;2023-03-21T12:10:54;97609.69;;;14.17;65.63
49194;BME280;35029;50.804;12.866;2023-03-21T12:13:43;97604.88;;;14.07;66.58
49194;BME280;35029;50.804;12.866;2023-03-21T12:19:23;97598.66;;;14.13;67.71
49194;BME280;35029;50.804;12.866;2023-03-21T12:24:40;97568.97;;;14.10;65.38
49194;BME280;35029;50.804;12.866;2023-03-21T12:27:34;97584.13;;;14.46;62.87
49194;BME280;35029;50.804;12.866;2023-03-21T12:43:43;97556.53;;;15.01;61.46
49194;BME280;35029;50.804;12.866;2023-03-21T12:46:26;97567.91;;;15.09;60.11
49194;BME280;35029;50.804;12.866;2023-03-21T12:49:12;97561.78;;;14.78;61.12
49194;BME280;35029;50.804;12.866;2023-03-21T12:51:42;97559.94;;;14.60;61.11
49194;BME280;35029;50.804;12.866;2023-03-21T12:54:32;97557.84;;;14.80;61.76
49194;BME280;35029;50.804;12.866;2023-03-21T12:57:08;97538.91;;;14.70;62.18
49194;BME280;35029;50.804;12.866;2023-03-21T12:59:39;97554.84;;;14.88;60.88
49194;BME280;35029;50.804;12.866;2023-03-21T13:02:30;97563.09;;;14.87;59.99
49194;BME280;35029;50.804;12.866;2023-03-21T13:07:44;97552.69;;;14.67;60.30
49194;BME280;35029;50.804;12.866;2023-03-21T13:10:14;97538.38;;;14.61;61.24
49194;BME280;35029;50.804;12.866;2023-03-21T13:12:50;97538.25;;;14.56;60.27
49194;BME280;35029;50.804;12.866;2023-03-21T13:21:14;97528.31;;;14.94;61.02
49194;BME280;35029;50.804;12.866;2023-03-21T13:23:57;97526.19;;;14.84;60.13
49194;BME280;35029;50.804;12.866;2023-03-21T13:26:38;97528.09;;;14.65;60.82
49194;BME280;35029;50.804;12.866;2023-03-21T13:29:25;97525.81;;;14.68;61.14
49194;BME280;35029;50.804;12.866;2023-03-21T13:31:53;97523.47;;;14.72;61.51
49194;BME280;35029;50.804;12.866;2023-03-21T13:34:21;97518.38;;;14.70;61.45
49194;BME280;35029;50.804;12.866;2023-03-21T13:36:48;97518.38;;;14.70;59.17
49194;BME280;35029;50.804;12.866;2023-03-21T13:39:23;97511.88;;;14.66;59.82
49194;BME280;35029;50.804;12.866;2023-03-21T13:41:49;97508.75;;;14.69;61.62
49194;BME280;35029;50.804;12.866;2023-03-21T13:44:31;97518.28;;;14.77;60.10
49194;BME280;35029;50.804;12.866;2023-03-21T13:47:03;97477.50;;;14.58;58.48
49194;BME280;35029;50.804;12.866;2023-03-21T13:49:34;97504.16;;;14.77;59.79
49194;BME280;35029;50.804;12.866;2023-03-21T13:52:25;97497.19;;;14.57;60.54
49194;BME280;35029;50.804;12.866;2023-03-21T13:54:56;97504.09;;;14.65;60.79
49194;BME280;35029;50.804;12.866;2023-03-21T13:57:36;97501.66;;;14.63;60.34
49194;BME280;35029;50.804;12.866;2023-03-21T14:02:54;97471.28;;;14.64;60.26
49194;BME280;35029;50.804;12.866;2023-03-21T14:05:22;97484.19;;;14.79;58.75
49194;BME280;35029;50.804;12.866;2023-03-21T14:07:54;97492.88;;;14.75;60.02
49194;BME280;35029;50.804;12.866;2023-03-21T14:10:38;97462.44;;;14.64;61.03
49194;BME280;35029;50.804;12.866;2023-03-21T14:13:05;97486.97;;;14.73;60.37
49194;BME280;35029;50.804;12.866;2023-03-21T14:15:41;97473.81;;;14.71;60.42
49194;BME280;35029;50.804;12.866;2023-03-21T14:18:14;97473.97;;;14.76;59.85
49194;BME280;35029;50.804;12.866;2023-03-21T14:20:40;97437.47;;;14.58;60.10
49194;BME280;35029;50.804;12.866;2023-03-21T14:23:13;97468.44;;;14.90;59.57
49194;BME280;35029;50.804;12.866;2023-03-21T14:25:40;97465.78;;;15.13;59.22
49194;BME280;35029;50.804;12.866;2023-03-21T14:30:43;97443.25;;;14.97;59.52